This is the latest recevied weather packets stored in our database for station/object OH2HCY-3. If no packets are shown the sender has not sent any weather packets the latest 10 day(s).
| Time | Temp. | Humidity | Pressure | Rain* | Wind** | Luminosity | Snow |
|---|---|---|---|---|---|---|---|
| 1777991674 | 10° C | 37% | 1006.3 hPa | - | - | - | - |
| 1777990525 | 10° C | 35% | 1006.1 hPa | - | - | - | - |
| 1777989430 | 10.56° C | 36% | 1005.9 hPa | - | - | - | - |
| 1777988379 | 11.11° C | 34% | 1005.9 hPa | - | - | - | - |
| 1777987422 | 10.56° C | 35% | 1005.7 hPa | - | - | - | - |
| 1777987420 | 10.56° C | 35% | 1005.7 hPa | - | - | - | - |
| 1777986444 | 11.11° C | 34% | 1005.7 hPa | - | - | - | - |
| 1777985360 | 10.56° C | 36% | 1005.5 hPa | - | - | - | - |
| 1777984290 | 11.11° C | 38% | 1005.3 hPa | - | - | - | - |
| 1777983170 | 11.11° C | 37% | 1005.2 hPa | - | - | - | - |
| 1777982145 | 11.11° C | 38% | 1005 hPa | - | - | - | - |
| 1777981180 | 11.11° C | 39% | 1004.8 hPa | - | - | - | - |
| 1777980115 | 10° C | 41% | 1004.8 hPa | - | - | - | - |
| 1777979090 | 11.11° C | 39% | 1004.5 hPa | - | - | - | - |
| 1777977930 | 10.56° C | 41% | 1004.3 hPa | - | - | - | - |
| 1777976940 | 11.11° C | 40% | 1004.2 hPa | - | - | - | - |
| 1777975775 | 10.56° C | 46% | 1004 hPa | - | - | - | - |
| 1777974635 | 11.67° C | 43% | 1003.6 hPa | - | - | - | - |
| 1777973499 | 11.67° C | 43% | 1003.3 hPa | - | - | - | - |
| 1777972305 | 11.11° C | 44% | 1003.1 hPa | - | - | - | - |
| 1777971168 | 11.11° C | 47% | 1002.7 hPa | - | - | - | - |
| 1777970005 | 10.56° C | 62% | 1002.5 hPa | - | - | - | - |
| 1777968950 | 10° C | 63% | 1002.3 hPa | - | - | - | - |
| 1777967795 | 10.56° C | 63% | 1002.1 hPa | - | - | - | - |
| 1777966610 | 10.56° C | 59% | 1002.1 hPa | - | - | - | - |
* Rain since midnight (hover to see other rain measurements)
** Current wind speed in m/s (hover to see current wind gust speed)